sensor_id;sensor_type;location;lat;lon;timestamp;temperature;humidity
8882;DHT22;4477;48.736;9.176;2024-02-23T00:01:33;3.80;99.90
8882;DHT22;4477;48.736;9.176;2024-02-23T00:04:00;3.80;99.90
8882;DHT22;4477;48.736;9.176;2024-02-23T00:06:28;3.80;99.90
8882;DHT22;4477;48.736;9.176;2024-02-23T00:08:55;3.80;99.90
8882;DHT22;4477;48.736;9.176;2024-02-23T00:11:22;3.80;99.90
8882;DHT22;4477;48.736;9.176;2024-02-23T00:13:49;3.70;99.90
8882;DHT22;4477;48.736;9.176;2024-02-23T00:16:16;3.70;99.90
8882;DHT22;4477;48.736;9.176;2024-02-23T00:18:47;3.80;99.90
8882;DHT22;4477;48.736;9.176;2024-02-23T00:21:14;3.80;99.90
8882;DHT22;4477;48.736;9.176;2024-02-23T00:23:41;3.80;99.90
8882;DHT22;4477;48.736;9.176;2024-02-23T00:26:08;3.90;99.90
8882;DHT22;4477;48.736;9.176;2024-02-23T00:28:35;3.90;99.90
8882;DHT22;4477;48.736;9.176;2024-02-23T00:31:02;3.90;99.90
8882;DHT22;4477;48.736;9.176;2024-02-23T00:33:29;3.90;99.90
8882;DHT22;4477;48.736;9.176;2024-02-23T00:35:58;3.90;99.90
8882;DHT22;4477;48.736;9.176;2024-02-23T00:38:25;3.90;99.90
8882;DHT22;4477;48.736;9.176;2024-02-23T00:40:51;3.90;99.90
8882;DHT22;4477;48.736;9.176;2024-02-23T00:43:19;4.00;99.90
8882;DHT22;4477;48.736;9.176;2024-02-23T00:45:46;3.90;99.90
8882;DHT22;4477;48.736;9.176;2024-02-23T00:48:13;3.90;99.90
8882;DHT22;4477;48.736;9.176;2024-02-23T00:50:40;3.90;99.90
8882;DHT22;4477;48.736;9.176;2024-02-23T00:53:09;4.00;99.90
8882;DHT22;4477;48.736;9.176;2024-02-23T00:55:36;4.00;99.90
8882;DHT22;4477;48.736;9.176;2024-02-23T00:58:03;4.00;99.90
8882;DHT22;4477;48.736;9.176;2024-02-23T01:00:30;3.90;99.90
8882;DHT22;4477;48.736;9.176;2024-02-23T01:02:57;3.90;99.90
8882;DHT22;4477;48.736;9.176;2024-02-23T01:05:26;4.00;99.90
8882;DHT22;4477;48.736;9.176;2024-02-23T01:07:53;4.00;99.90
8882;DHT22;4477;48.736;9.176;2024-02-23T01:10:21;3.90;99.90
8882;DHT22;4477;48.736;9.176;2024-02-23T01:12:48;3.90;99.90
8882;DHT22;4477;48.736;9.176;2024-02-23T01:15:15;3.90;99.90
8882;DHT22;4477;48.736;9.176;2024-02-23T01:17:42;3.90;99.90
8882;DHT22;4477;48.736;9.176;2024-02-23T01:20:10;3.80;99.90
8882;DHT22;4477;48.736;9.176;2024-02-23T01:22:37;3.70;99.90
8882;DHT22;4477;48.736;9.176;2024-02-23T01:25:05;3.60;99.90
8882;DHT22;4477;48.736;9.176;2024-02-23T01:27:33;3.70;99.90
8882;DHT22;4477;48.736;9.176;2024-02-23T01:30:01;3.70;99.90
8882;DHT22;4477;48.736;9.176;2024-02-23T01:32:28;3.70;99.90
8882;DHT22;4477;48.736;9.176;2024-02-23T01:34:55;3.70;99.90
8882;DHT22;4477;48.736;9.176;2024-02-23T01:37:23;3.70;99.90
8882;DHT22;4477;48.736;9.176;2024-02-23T01:39:50;3.60;99.90
8882;DHT22;4477;48.736;9.176;2024-02-23T01:42:17;3.60;99.90
8882;DHT22;4477;48.736;9.176;2024-02-23T01:44:45;3.50;99.90
8882;DHT22;4477;48.736;9.176;2024-02-23T01:47:12;3.50;99.90
8882;DHT22;4477;48.736;9.176;2024-02-23T01:49:39;3.60;99.90
8882;DHT22;4477;48.736;9.176;2024-02-23T01:52:06;3.70;99.90
8882;DHT22;4477;48.736;9.176;2024-02-23T01:54:33;3.70;99.90
8882;DHT22;4477;48.736;9.176;2024-02-23T01:57:01;3.70;99.90
8882;DHT22;4477;48.736;9.176;2024-02-23T01:59:28;3.70;99.90
8882;DHT22;4477;48.736;9.176;2024-02-23T02:01:57;3.70;99.90
8882;DHT22;4477;48.736;9.176;2024-02-23T02:04:24;3.80;99.90
8882;DHT22;4477;48.736;9.176;2024-02-23T02:06:51;3.80;99.90
8882;DHT22;4477;48.736;9.176;2024-02-23T02:09:18;3.80;99.90
8882;DHT22;4477;48.736;9.176;2024-02-23T02:11:46;3.80;99.90
8882;DHT22;4477;48.736;9.176;2024-02-23T02:14:13;3.80;99.90
8882;DHT22;4477;48.736;9.176;2024-02-23T02:16:40;3.80;99.90
8882;DHT22;4477;48.736;9.176;2024-02-23T02:19:09;3.80;99.90
8882;DHT22;4477;48.736;9.176;2024-02-23T02:21:37;3.70;99.90
8882;DHT22;4477;48.736;9.176;2024-02-23T02:24:05;3.60;99.90
8882;DHT22;4477;48.736;9.176;2024-02-23T02:26:32;3.50;99.90
8882;DHT22;4477;48.736;9.176;2024-02-23T02:28:59;3.50;99.90
8882;DHT22;4477;48.736;9.176;2024-02-23T02:31:26;3.40;99.90
8882;DHT22;4477;48.736;9.176;2024-02-23T02:33:53;3.30;99.90
8882;DHT22;4477;48.736;9.176;2024-02-23T02:36:21;3.30;99.90
8882;DHT22;4477;48.736;9.176;2024-02-23T02:38:48;3.20;99.90
8882;DHT22;4477;48.736;9.176;2024-02-23T02:41:17;3.20;99.90
8882;DHT22;4477;48.736;9.176;2024-02-23T02:43:46;3.10;99.90
8882;DHT22;4477;48.736;9.176;2024-02-23T02:46:13;3.20;99.90
8882;DHT22;4477;48.736;9.176;2024-02-23T02:48:40;3.10;99.90
8882;DHT22;4477;48.736;9.176;2024-02-23T02:51:08;3.10;99.90
8882;DHT22;4477;48.736;9.176;2024-02-23T02:53:38;3.10;99.90
8882;DHT22;4477;48.736;9.176;2024-02-23T02:56:06;3.10;99.90
8882;DHT22;4477;48.736;9.176;2024-02-23T02:58:33;3.00;99.90
8882;DHT22;4477;48.736;9.176;2024-02-23T03:01:00;3.20;99.90
8882;DHT22;4477;48.736;9.176;2024-02-23T03:03:27;3.30;99.90
8882;DHT22;4477;48.736;9.176;2024-02-23T03:05:54;3.40;99.90
8882;DHT22;4477;48.736;9.176;2024-02-23T03:08:21;3.60;99.90
8882;DHT22;4477;48.736;9.176;2024-02-23T03:10:49;3.70;99.90
8882;DHT22;4477;48.736;9.176;2024-02-23T03:13:17;3.70;99.90
8882;DHT22;4477;48.736;9.176;2024-02-23T03:15:44;3.80;99.90
8882;DHT22;4477;48.736;9.176;2024-02-23T03:18:11;3.90;99.90
8882;DHT22;4477;48.736;9.176;2024-02-23T03:20:40;3.90;99.90
8882;DHT22;4477;48.736;9.176;2024-02-23T03:23:07;3.90;99.90
8882;DHT22;4477;48.736;9.176;2024-02-23T03:25:35;3.80;99.90
8882;DHT22;4477;48.736;9.176;2024-02-23T03:28:04;3.80;99.90
8882;DHT22;4477;48.736;9.176;2024-02-23T03:30:33;3.80;99.90
8882;DHT22;4477;48.736;9.176;2024-02-23T03:33:02;3.80;99.90
8882;DHT22;4477;48.736;9.176;2024-02-23T03:35:29;3.70;99.90
8882;DHT22;4477;48.736;9.176;2024-02-23T03:37:56;3.60;99.90
8882;DHT22;4477;48.736;9.176;2024-02-23T03:40:23;3.60;99.90
8882;DHT22;4477;48.736;9.176;2024-02-23T03:42:51;3.50;99.90
8882;DHT22;4477;48.736;9.176;2024-02-23T03:45:19;3.50;99.90
8882;DHT22;4477;48.736;9.176;2024-02-23T03:47:47;3.70;99.20
8882;DHT22;4477;48.736;9.176;2024-02-23T03:50:14;3.70;99.30
8882;DHT22;4477;48.736;9.176;2024-02-23T03:52:42;3.70;99.20
8882;DHT22;4477;48.736;9.176;2024-02-23T03:55:10;3.70;98.50
8882;DHT22;4477;48.736;9.176;2024-02-23T03:57:37;3.70;98.00
8882;DHT22;4477;48.736;9.176;2024-02-23T04:00:05;3.60;98.60
8882;DHT22;4477;48.736;9.176;2024-02-23T04:02:34;3.60;97.70
8882;DHT22;4477;48.736;9.176;2024-02-23T04:05:02;3.60;98.00
8882;DHT22;4477;48.736;9.176;2024-02-23T04:07:28;3.50;98.60
8882;DHT22;4477;48.736;9.176;2024-02-23T04:09:56;3.40;98.30
8882;DHT22;4477;48.736;9.176;2024-02-23T04:12:24;3.40;99.10
8882;DHT22;4477;48.736;9.176;2024-02-23T04:14:51;3.30;98.60
8882;DHT22;4477;48.736;9.176;2024-02-23T04:17:18;3.30;98.40
8882;DHT22;4477;48.736;9.176;2024-02-23T04:19:46;3.30;98.00
8882;DHT22;4477;48.736;9.176;2024-02-23T04:22:13;3.30;97.90
8882;DHT22;4477;48.736;9.176;2024-02-23T04:24:41;3.30;97.90
8882;DHT22;4477;48.736;9.176;2024-02-23T04:27:08;3.30;97.60
8882;DHT22;4477;48.736;9.176;2024-02-23T04:29:35;3.30;98.40
8882;DHT22;4477;48.736;9.176;2024-02-23T04:32:03;3.20;98.90
8882;DHT22;4477;48.736;9.176;2024-02-23T04:34:30;3.10;99.20
8882;DHT22;4477;48.736;9.176;2024-02-23T04:36:59;3.00;99.90
8882;DHT22;4477;48.736;9.176;2024-02-23T04:39:26;2.90;99.90
8882;DHT22;4477;48.736;9.176;2024-02-23T04:41:53;2.70;99.90
8882;DHT22;4477;48.736;9.176;2024-02-23T04:44:21;2.70;99.90
8882;DHT22;4477;48.736;9.176;2024-02-23T04:46:47;2.70;99.90
8882;DHT22;4477;48.736;9.176;2024-02-23T04:49:15;2.60;99.90
8882;DHT22;4477;48.736;9.176;2024-02-23T04:51:42;2.50;99.90
8882;DHT22;4477;48.736;9.176;2024-02-23T04:54:10;2.50;99.90
8882;DHT22;4477;48.736;9.176;2024-02-23T04:56:38;2.40;99.90
8882;DHT22;4477;48.736;9.176;2024-02-23T04:59:05;2.40;99.90
8882;DHT22;4477;48.736;9.176;2024-02-23T05:01:35;2.40;99.90
8882;DHT22;4477;48.736;9.176;2024-02-23T05:04:03;2.40;99.90
8882;DHT22;4477;48.736;9.176;2024-02-23T05:06:30;2.30;99.90
8882;DHT22;4477;48.736;9.176;2024-02-23T05:08:57;2.20;99.90
8882;DHT22;4477;48.736;9.176;2024-02-23T05:11:28;2.20;99.90
8882;DHT22;4477;48.736;9.176;2024-02-23T05:13:56;2.20;99.90
8882;DHT22;4477;48.736;9.176;2024-02-23T05:16:24;2.20;99.90
8882;DHT22;4477;48.736;9.176;2024-02-23T05:18:51;2.10;99.90
8882;DHT22;4477;48.736;9.176;2024-02-23T05:21:18;2.20;99.90
8882;DHT22;4477;48.736;9.176;2024-02-23T05:23:45;2.20;99.90
8882;DHT22;4477;48.736;9.176;2024-02-23T05:26:13;2.10;99.90
8882;DHT22;4477;48.736;9.176;2024-02-23T05:28:41;2.00;99.90
8882;DHT22;4477;48.736;9.176;2024-02-23T05:31:09;1.90;99.90
8882;DHT22;4477;48.736;9.176;2024-02-23T05:33:36;1.80;99.90
8882;DHT22;4477;48.736;9.176;2024-02-23T05:36:04;1.80;99.90
8882;DHT22;4477;48.736;9.176;2024-02-23T05:38:31;1.80;99.90
8882;DHT22;4477;48.736;9.176;2024-02-23T05:40:58;1.70;99.90
8882;DHT22;4477;48.736;9.176;2024-02-23T05:43:26;1.70;99.90
8882;DHT22;4477;48.736;9.176;2024-02-23T05:45:55;1.60;99.90
8882;DHT22;4477;48.736;9.176;2024-02-23T05:48:24;1.60;99.90
8882;DHT22;4477;48.736;9.176;2024-02-23T05:50:51;1.60;99.90
8882;DHT22;4477;48.736;9.176;2024-02-23T05:53:19;1.60;99.90
8882;DHT22;4477;48.736;9.176;2024-02-23T05:55:46;1.60;99.90
8882;DHT22;4477;48.736;9.176;2024-02-23T05:58:15;1.60;99.90
8882;DHT22;4477;48.736;9.176;2024-02-23T06:00:42;1.60;99.90
8882;DHT22;4477;48.736;9.176;2024-02-23T06:03:11;1.60;99.90
8882;DHT22;4477;48.736;9.176;2024-02-23T06:05:38;1.40;99.90
8882;DHT22;4477;48.736;9.176;2024-02-23T06:08:06;1.40;99.90
8882;DHT22;4477;48.736;9.176;2024-02-23T06:10:33;1.20;99.90
8882;DHT22;4477;48.736;9.176;2024-02-23T06:13:01;1.00;99.90
8882;DHT22;4477;48.736;9.176;2024-02-23T06:15:28;1.00;99.90
8882;DHT22;4477;48.736;9.176;2024-02-23T06:17:55;1.00;99.90
8882;DHT22;4477;48.736;9.176;2024-02-23T06:20:25;1.10;99.90
8882;DHT22;4477;48.736;9.176;2024-02-23T06:22:53;1.10;99.90
8882;DHT22;4477;48.736;9.176;2024-02-23T06:25:20;1.20;99.90
8882;DHT22;4477;48.736;9.176;2024-02-23T06:27:47;1.30;99.90
8882;DHT22;4477;48.736;9.176;2024-02-23T06:30:16;1.30;99.90
8882;DHT22;4477;48.736;9.176;2024-02-23T06:32:43;1.40;99.90
8882;DHT22;4477;48.736;9.176;2024-02-23T06:35:11;1.40;99.90
8882;DHT22;4477;48.736;9.176;2024-02-23T06:37:40;1.40;99.90
8882;DHT22;4477;48.736;9.176;2024-02-23T06:40:08;1.40;99.90
8882;DHT22;4477;48.736;9.176;2024-02-23T06:42:37;1.50;99.90
8882;DHT22;4477;48.736;9.176;2024-02-23T06:45:05;1.60;99.90
8882;DHT22;4477;48.736;9.176;2024-02-23T06:47:33;1.70;99.90
8882;DHT22;4477;48.736;9.176;2024-02-23T06:50:00;1.80;99.90
8882;DHT22;4477;48.736;9.176;2024-02-23T06:52:29;1.90;99.90
8882;DHT22;4477;48.736;9.176;2024-02-23T06:54:57;2.10;99.90
8882;DHT22;4477;48.736;9.176;2024-02-23T06:57:25;2.20;99.90
8882;DHT22;4477;48.736;9.176;2024-02-23T06:59:52;2.30;99.90
8882;DHT22;4477;48.736;9.176;2024-02-23T07:02:19;2.40;99.90
8882;DHT22;4477;48.736;9.176;2024-02-23T07:04:46;2.40;99.90
8882;DHT22;4477;48.736;9.176;2024-02-23T07:07:13;2.50;99.90
8882;DHT22;4477;48.736;9.176;2024-02-23T07:09:40;2.60;99.90
8882;DHT22;4477;48.736;9.176;2024-02-23T07:12:09;2.70;99.90
8882;DHT22;4477;48.736;9.176;2024-02-23T07:14:39;2.70;99.90
8882;DHT22;4477;48.736;9.176;2024-02-23T07:17:06;2.80;99.90
8882;DHT22;4477;48.736;9.176;2024-02-23T07:19:33;2.80;99.90
8882;DHT22;4477;48.736;9.176;2024-02-23T07:22:00;2.80;99.90
8882;DHT22;4477;48.736;9.176;2024-02-23T07:24:27;2.80;99.90
8882;DHT22;4477;48.736;9.176;2024-02-23T07:26:54;2.80;99.90
8882;DHT22;4477;48.736;9.176;2024-02-23T07:29:23;2.80;99.90
8882;DHT22;4477;48.736;9.176;2024-02-23T07:31:50;2.90;99.90
8882;DHT22;4477;48.736;9.176;2024-02-23T07:34:17;3.00;99.90
8882;DHT22;4477;48.736;9.176;2024-02-23T07:36:44;3.00;99.90
8882;DHT22;4477;48.736;9.176;2024-02-23T07:39:11;3.10;99.90
8882;DHT22;4477;48.736;9.176;2024-02-23T07:41:39;3.20;99.90
8882;DHT22;4477;48.736;9.176;2024-02-23T07:44:06;3.30;99.90
8882;DHT22;4477;48.736;9.176;2024-02-23T07:46:34;3.40;99.90
8882;DHT22;4477;48.736;9.176;2024-02-23T07:49:01;3.70;99.90
8882;DHT22;4477;48.736;9.176;2024-02-23T07:51:28;3.90;99.90
8882;DHT22;4477;48.736;9.176;2024-02-23T07:53:55;3.90;99.90
8882;DHT22;4477;48.736;9.176;2024-02-23T07:56:27;3.80;99.90
8882;DHT22;4477;48.736;9.176;2024-02-23T07:58:55;3.80;99.90
8882;DHT22;4477;48.736;9.176;2024-02-23T08:01:23;3.80;99.90
8882;DHT22;4477;48.736;9.176;2024-02-23T08:03:53;3.70;99.90
8882;DHT22;4477;48.736;9.176;2024-02-23T08:06:20;3.70;99.90
8882;DHT22;4477;48.736;9.176;2024-02-23T08:08:47;3.70;99.90
8882;DHT22;4477;48.736;9.176;2024-02-23T08:11:14;3.60;99.90
8882;DHT22;4477;48.736;9.176;2024-02-23T08:13:42;3.60;99.90
8882;DHT22;4477;48.736;9.176;2024-02-23T08:16:09;3.60;99.90
8882;DHT22;4477;48.736;9.176;2024-02-23T08:18:36;3.50;99.90
8882;DHT22;4477;48.736;9.176;2024-02-23T08:21:05;3.50;99.90
8882;DHT22;4477;48.736;9.176;2024-02-23T08:23:33;3.60;99.90
8882;DHT22;4477;48.736;9.176;2024-02-23T08:26:00;3.80;99.90
8882;DHT22;4477;48.736;9.176;2024-02-23T08:28:27;3.90;99.90
8882;DHT22;4477;48.736;9.176;2024-02-23T08:30:55;4.20;99.90
8882;DHT22;4477;48.736;9.176;2024-02-23T08:33:23;4.30;99.90
8882;DHT22;4477;48.736;9.176;2024-02-23T08:35:50;4.40;99.90
8882;DHT22;4477;48.736;9.176;2024-02-23T08:38:19;4.40;99.90
8882;DHT22;4477;48.736;9.176;2024-02-23T08:40:46;4.50;99.90
8882;DHT22;4477;48.736;9.176;2024-02-23T08:43:13;4.50;99.90
8882;DHT22;4477;48.736;9.176;2024-02-23T08:45:41;4.40;99.90
8882;DHT22;4477;48.736;9.176;2024-02-23T08:48:08;4.40;99.90
8882;DHT22;4477;48.736;9.176;2024-02-23T08:50:35;4.40;99.30
8882;DHT22;4477;48.736;9.176;2024-02-23T08:53:04;4.40;98.70
8882;DHT22;4477;48.736;9.176;2024-02-23T08:55:32;4.50;98.50
8882;DHT22;4477;48.736;9.176;2024-02-23T08:57:59;4.50;97.80
8882;DHT22;4477;48.736;9.176;2024-02-23T09:00:26;4.60;97.50
8882;DHT22;4477;48.736;9.176;2024-02-23T09:02:54;4.60;97.20
8882;DHT22;4477;48.736;9.176;2024-02-23T09:05:21;4.50;96.80
8882;DHT22;4477;48.736;9.176;2024-02-23T09:07:48;4.50;96.50
8882;DHT22;4477;48.736;9.176;2024-02-23T09:10:16;4.60;96.60
8882;DHT22;4477;48.736;9.176;2024-02-23T09:12:45;4.70;96.10
8882;DHT22;4477;48.736;9.176;2024-02-23T09:15:13;4.70;95.60
8882;DHT22;4477;48.736;9.176;2024-02-23T09:17:40;4.70;95.40
8882;DHT22;4477;48.736;9.176;2024-02-23T09:20:11;4.70;95.60
8882;DHT22;4477;48.736;9.176;2024-02-23T09:22:38;4.60;95.20
8882;DHT22;4477;48.736;9.176;2024-02-23T09:25:07;4.80;95.10
8882;DHT22;4477;48.736;9.176;2024-02-23T09:27:34;4.70;95.40
8882;DHT22;4477;48.736;9.176;2024-02-23T09:30:11;5.00;95.40
8882;DHT22;4477;48.736;9.176;2024-02-23T09:32:41;5.10;94.40
8882;DHT22;4477;48.736;9.176;2024-02-23T09:35:09;5.10;94.10
8882;DHT22;4477;48.736;9.176;2024-02-23T09:37:37;5.30;93.90
8882;DHT22;4477;48.736;9.176;2024-02-23T09:40:05;5.70;93.40
8882;DHT22;4477;48.736;9.176;2024-02-23T09:42:33;5.80;91.90
8882;DHT22;4477;48.736;9.176;2024-02-23T09:45:01;5.70;91.80
8882;DHT22;4477;48.736;9.176;2024-02-23T09:47:36;6.10;92.00
8882;DHT22;4477;48.736;9.176;2024-02-23T09:50:08;6.30;90.40
8882;DHT22;4477;48.736;9.176;2024-02-23T09:52:36;6.80;90.30
8882;DHT22;4477;48.736;9.176;2024-02-23T09:55:06;7.80;87.80
8882;DHT22;4477;48.736;9.176;2024-02-23T09:57:37;8.40;84.70
8882;DHT22;4477;48.736;9.176;2024-02-23T10:00:07;9.10;81.20
8882;DHT22;4477;48.736;9.176;2024-02-23T10:02:40;9.80;79.10
8882;DHT22;4477;48.736;9.176;2024-02-23T10:05:08;10.40;73.00
8882;DHT22;4477;48.736;9.176;2024-02-23T10:08:00;10.20;70.30
8882;DHT22;4477;48.736;9.176;2024-02-23T10:10:30;9.20;73.20
8882;DHT22;4477;48.736;9.176;2024-02-23T10:12:58;8.80;75.90
8882;DHT22;4477;48.736;9.176;2024-02-23T10:15:28;8.20;76.10
8882;DHT22;4477;48.736;9.176;2024-02-23T10:17:58;7.60;78.30
8882;DHT22;4477;48.736;9.176;2024-02-23T10:20:25;7.10;78.60
8882;DHT22;4477;48.736;9.176;2024-02-23T10:23:00;6.80;80.40
8882;DHT22;4477;48.736;9.176;2024-02-23T10:25:33;6.90;82.20
8882;DHT22;4477;48.736;9.176;2024-02-23T10:28:01;6.90;78.80
8882;DHT22;4477;48.736;9.176;2024-02-23T10:30:37;6.70;79.90
8882;DHT22;4477;48.736;9.176;2024-02-23T10:33:09;6.70;80.60
8882;DHT22;4477;48.736;9.176;2024-02-23T10:35:38;6.90;82.50
8882;DHT22;4477;48.736;9.176;2024-02-23T10:38:08;7.00;80.70
8882;DHT22;4477;48.736;9.176;2024-02-23T10:40:38;7.10;80.00
8882;DHT22;4477;48.736;9.176;2024-02-23T10:43:08;7.10;79.30
8882;DHT22;4477;48.736;9.176;2024-02-23T10:45:41;7.50;79.40
8882;DHT22;4477;48.736;9.176;2024-02-23T10:48:15;8.10;77.50
8882;DHT22;4477;48.736;9.176;2024-02-23T10:50:44;8.40;73.90
8882;DHT22;4477;48.736;9.176;2024-02-23T10:53:13;8.20;74.40
8882;DHT22;4477;48.736;9.176;2024-02-23T10:55:42;8.10;73.80
8882;DHT22;4477;48.736;9.176;2024-02-23T10:58:12;8.20;73.30
8882;DHT22;4477;48.736;9.176;2024-02-23T11:00:47;8.10;73.80
8882;DHT22;4477;48.736;9.176;2024-02-23T11:03:19;8.10;74.50
8882;DHT22;4477;48.736;9.176;2024-02-23T11:05:49;8.00;74.90
8882;DHT22;4477;48.736;9.176;2024-02-23T11:08:20;7.90;74.70
8882;DHT22;4477;48.736;9.176;2024-02-23T11:11:06;7.70;74.80
8882;DHT22;4477;48.736;9.176;2024-02-23T11:13:34;7.40;75.50
8882;DHT22;4477;48.736;9.176;2024-02-23T11:16:04;7.70;77.10
8882;DHT22;4477;48.736;9.176;2024-02-23T11:18:34;7.90;74.40
8882;DHT22;4477;48.736;9.176;2024-02-23T11:21:05;7.90;74.90
8882;DHT22;4477;48.736;9.176;2024-02-23T11:24:15;7.60;74.30
8882;DHT22;4477;48.736;9.176;2024-02-23T11:27:00;7.30;76.70
8882;DHT22;4477;48.736;9.176;2024-02-23T11:29:37;7.50;76.10
8882;DHT22;4477;48.736;9.176;2024-02-23T11:32:13;7.60;75.70
8882;DHT22;4477;48.736;9.176;2024-02-23T11:34:56;7.70;74.40
8882;DHT22;4477;48.736;9.176;2024-02-23T11:37:54;7.60;75.20
8882;DHT22;4477;48.736;9.176;2024-02-23T11:40:30;7.50;75.00
8882;DHT22;4477;48.736;9.176;2024-02-23T11:43:11;7.60;77.00
8882;DHT22;4477;48.736;9.176;2024-02-23T11:45:42;7.40;74.00
8882;DHT22;4477;48.736;9.176;2024-02-23T11:48:15;7.50;74.70
8882;DHT22;4477;48.736;9.176;2024-02-23T11:50:50;7.60;74.50
8882;DHT22;4477;48.736;9.176;2024-02-23T11:53:18;7.50;75.20
8882;DHT22;4477;48.736;9.176;2024-02-23T11:55:50;7.60;75.00
8882;DHT22;4477;48.736;9.176;2024-02-23T11:58:43;7.50;74.60
8882;DHT22;4477;48.736;9.176;2024-02-23T12:01:28;7.50;75.20
8882;DHT22;4477;48.736;9.176;2024-02-23T12:04:02;7.70;75.40
8882;DHT22;4477;48.736;9.176;2024-02-23T12:06:50;8.20;74.50
8882;DHT22;4477;48.736;9.176;2024-02-23T12:09:30;8.80;73.00
8882;DHT22;4477;48.736;9.176;2024-02-23T12:14:52;8.80;72.60
8882;DHT22;4477;48.736;9.176;2024-02-23T12:17:28;8.60;72.30
8882;DHT22;4477;48.736;9.176;2024-02-23T12:20:15;8.50;72.80
8882;DHT22;4477;48.736;9.176;2024-02-23T12:23:07;8.40;72.50
8882;DHT22;4477;48.736;9.176;2024-02-23T12:25:57;8.30;73.50
8882;DHT22;4477;48.736;9.176;2024-02-23T12:28:47;8.00;73.20
8882;DHT22;4477;48.736;9.176;2024-02-23T12:31:37;7.60;73.20
8882;DHT22;4477;48.736;9.176;2024-02-23T12:34:10;7.60;75.60
8882;DHT22;4477;48.736;9.176;2024-02-23T12:36:40;7.70;75.80
8882;DHT22;4477;48.736;9.176;2024-02-23T12:39:18;7.80;74.10
8882;DHT22;4477;48.736;9.176;2024-02-23T12:42:08;7.50;73.20
8882;DHT22;4477;48.736;9.176;2024-02-23T12:44:47;7.60;73.70
8882;DHT22;4477;48.736;9.176;2024-02-23T12:47:16;7.70;74.60
8882;DHT22;4477;48.736;9.176;2024-02-23T12:49:45;7.50;74.70
8882;DHT22;4477;48.736;9.176;2024-02-23T12:52:25;7.30;78.30
8882;DHT22;4477;48.736;9.176;2024-02-23T12:54:56;7.20;76.90
8882;DHT22;4477;48.736;9.176;2024-02-23T12:57:23;7.20;79.00
8882;DHT22;4477;48.736;9.176;2024-02-23T12:59:52;7.30;79.60
8882;DHT22;4477;48.736;9.176;2024-02-23T13:02:23;7.40;77.60
8882;DHT22;4477;48.736;9.176;2024-02-23T13:04:50;7.10;77.90
8882;DHT22;4477;48.736;9.176;2024-02-23T13:07:20;7.10;79.90
8882;DHT22;4477;48.736;9.176;2024-02-23T13:13:18;7.70;77.50
8882;DHT22;4477;48.736;9.176;2024-02-23T13:15:48;8.50;75.80
8882;DHT22;4477;48.736;9.176;2024-02-23T13:18:31;9.60;72.70
8882;DHT22;4477;48.736;9.176;2024-02-23T13:21:09;9.80;70.30
8882;DHT22;4477;48.736;9.176;2024-02-23T13:23:39;9.30;71.00
8882;DHT22;4477;48.736;9.176;2024-02-23T13:26:21;9.00;73.60
8882;DHT22;4477;48.736;9.176;2024-02-23T13:29:00;8.50;73.10
8882;DHT22;4477;48.736;9.176;2024-02-23T13:31:52;8.20;74.20
8882;DHT22;4477;48.736;9.176;2024-02-23T13:34:20;8.00;75.40
8882;DHT22;4477;48.736;9.176;2024-02-23T13:36:48;8.00;76.60
8882;DHT22;4477;48.736;9.176;2024-02-23T13:39:18;8.00;76.30
8882;DHT22;4477;48.736;9.176;2024-02-23T13:41:45;7.80;78.10
8882;DHT22;4477;48.736;9.176;2024-02-23T13:44:14;7.80;76.70
8882;DHT22;4477;48.736;9.176;2024-02-23T13:46:46;7.70;76.50
8882;DHT22;4477;48.736;9.176;2024-02-23T13:49:16;7.60;77.00
8882;DHT22;4477;48.736;9.176;2024-02-23T13:51:53;7.60;78.40
8882;DHT22;4477;48.736;9.176;2024-02-23T13:54:24;7.60;78.50
8882;DHT22;4477;48.736;9.176;2024-02-23T13:56:51;7.60;78.70
8882;DHT22;4477;48.736;9.176;2024-02-23T13:59:21;7.50;78.40
8882;DHT22;4477;48.736;9.176;2024-02-23T14:01:54;7.30;78.80
8882;DHT22;4477;48.736;9.176;2024-02-23T14:04:22;7.40;79.30
8882;DHT22;4477;48.736;9.176;2024-02-23T14:06:59;7.20;80.20
8882;DHT22;4477;48.736;9.176;2024-02-23T14:09:38;7.10;80.70
8882;DHT22;4477;48.736;9.176;2024-02-23T14:12:14;7.30;80.10
8882;DHT22;4477;48.736;9.176;2024-02-23T14:14:52;7.30;78.20
8882;DHT22;4477;48.736;9.176;2024-02-23T14:17:19;7.50;79.10
8882;DHT22;4477;48.736;9.176;2024-02-23T14:19:46;7.60;77.10
8882;DHT22;4477;48.736;9.176;2024-02-23T14:22:21;7.80;77.70
8882;DHT22;4477;48.736;9.176;2024-02-23T14:25:18;8.00;76.90
8882;DHT22;4477;48.736;9.176;2024-02-23T14:27:54;7.90;77.40
8882;DHT22;4477;48.736;9.176;2024-02-23T14:30:40;8.10;76.20
8882;DHT22;4477;48.736;9.176;2024-02-23T14:33:08;8.50;76.80
8882;DHT22;4477;48.736;9.176;2024-02-23T14:35:40;8.50;75.00
8882;DHT22;4477;48.736;9.176;2024-02-23T14:38:08;8.40;74.60
8882;DHT22;4477;48.736;9.176;2024-02-23T14:40:37;8.50;74.40
8882;DHT22;4477;48.736;9.176;2024-02-23T14:43:08;8.70;74.00
8882;DHT22;4477;48.736;9.176;2024-02-23T14:45:54;9.10;73.00
8882;DHT22;4477;48.736;9.176;2024-02-23T14:48:27;9.80;71.60
8882;DHT22;4477;48.736;9.176;2024-02-23T14:50:59;9.40;69.10
8882;DHT22;4477;48.736;9.176;2024-02-23T14:53:39;8.40;72.30
8882;DHT22;4477;48.736;9.176;2024-02-23T14:56:17;7.80;75.20
8882;DHT22;4477;48.736;9.176;2024-02-23T14:59:02;7.40;76.50
8882;DHT22;4477;48.736;9.176;2024-02-23T15:01:53;7.40;77.70
8882;DHT22;4477;48.736;9.176;2024-02-23T15:04:34;7.30;77.80
8882;DHT22;4477;48.736;9.176;2024-02-23T15:07:06;7.20;77.40
8882;DHT22;4477;48.736;9.176;2024-02-23T15:09:50;7.30;78.40
8882;DHT22;4477;48.736;9.176;2024-02-23T15:12:31;7.10;77.20
8882;DHT22;4477;48.736;9.176;2024-02-23T15:15:05;7.10;77.90
8882;DHT22;4477;48.736;9.176;2024-02-23T15:17:36;7.10;78.90
8882;DHT22;4477;48.736;9.176;2024-02-23T15:20:08;7.00;80.30
8882;DHT22;4477;48.736;9.176;2024-02-23T15:22:40;6.90;80.70
8882;DHT22;4477;48.736;9.176;2024-02-23T15:25:18;6.80;79.50
8882;DHT22;4477;48.736;9.176;2024-02-23T15:28:05;6.70;80.30
8882;DHT22;4477;48.736;9.176;2024-02-23T15:30:51;6.80;80.00
8882;DHT22;4477;48.736;9.176;2024-02-23T15:33:20;6.80;81.10
8882;DHT22;4477;48.736;9.176;2024-02-23T15:35:54;6.80;79.80
8882;DHT22;4477;48.736;9.176;2024-02-23T15:38:22;6.80;80.20
8882;DHT22;4477;48.736;9.176;2024-02-23T15:44:11;6.80;80.20
8882;DHT22;4477;48.736;9.176;2024-02-23T15:50:00;6.70;81.30
8882;DHT22;4477;48.736;9.176;2024-02-23T15:55:18;6.60;80.60
8882;DHT22;4477;48.736;9.176;2024-02-23T15:57:47;6.60;80.30
8882;DHT22;4477;48.736;9.176;2024-02-23T16:00:15;6.50;80.40
8882;DHT22;4477;48.736;9.176;2024-02-23T16:02:43;6.50;81.60
8882;DHT22;4477;48.736;9.176;2024-02-23T16:08:20;6.40;84.40
8882;DHT22;4477;48.736;9.176;2024-02-23T16:11:04;6.30;85.90
8882;DHT22;4477;48.736;9.176;2024-02-23T16:13:32;6.20;84.40
8882;DHT22;4477;48.736;9.176;2024-02-23T16:15:59;6.10;88.00
8882;DHT22;4477;48.736;9.176;2024-02-23T16:18:27;5.80;88.80
8882;DHT22;4477;48.736;9.176;2024-02-23T16:20:54;5.60;91.00
8882;DHT22;4477;48.736;9.176;2024-02-23T16:23:24;5.30;90.60
8882;DHT22;4477;48.736;9.176;2024-02-23T16:25:51;5.10;91.70
8882;DHT22;4477;48.736;9.176;2024-02-23T16:28:18;5.10;92.20
8882;DHT22;4477;48.736;9.176;2024-02-23T16:30:45;4.90;92.60
8882;DHT22;4477;48.736;9.176;2024-02-23T16:33:12;4.70;93.30
8882;DHT22;4477;48.736;9.176;2024-02-23T16:35:39;4.70;94.70
8882;DHT22;4477;48.736;9.176;2024-02-23T16:38:07;4.70;94.70
8882;DHT22;4477;48.736;9.176;2024-02-23T16:40:36;4.70;95.40
8882;DHT22;4477;48.736;9.176;2024-02-23T16:43:04;4.70;95.80
8882;DHT22;4477;48.736;9.176;2024-02-23T16:45:31;4.70;95.70
8882;DHT22;4477;48.736;9.176;2024-02-23T16:47:59;4.70;96.00
8882;DHT22;4477;48.736;9.176;2024-02-23T16:50:28;4.70;95.80
8882;DHT22;4477;48.736;9.176;2024-02-23T16:52:57;4.70;95.80
8882;DHT22;4477;48.736;9.176;2024-02-23T16:55:24;4.60;95.10